Time;durP1;ratioP1;P1;durP2;ratioP2;P2;SDS_P1;SDS_P2;PMS_P1;PMS_P2;Temp;Humidity;BMP_temperature;BMP_pressure;BME280_temperature;BME280_humidity;BME280_pressure;Samples;Min_cycle;Max_cycle;Signal;HPM_P1;HPM_P2
2023/08/08 00:00:26;;;;;;;;;;;;;;;23.58;100.00;101276.19;5077652;28;20041;-52
2023/08/08 00:02:52;;;;;;;;;;;;;;;23.68;100.00;101265.28;5080095;28;19927;-54
2023/08/08 00:05:17;;;;;;;;;;;;;;;22.73;100.00;101265.38;5096231;28;19916;-58
2023/08/08 00:07:42;;;;;;;;;;;;;;;22.99;100.00;101276.38;5087917;28;19916;-52
2023/08/08 00:10:08;;;;;;;;;;;;;;;22.94;100.00;101273.63;5094543;28;19983;-54
2023/08/08 00:12:34;;;;;;;;;;;;;;;23.27;100.00;101274.25;5094906;28;19940;-53
2023/08/08 00:15:00;;;;;;;;;;;;;;;23.68;100.00;101269.91;5098674;28;19924;-55
2023/08/08 00:17:25;;;;;;;;;;;;;;;23.17;100.00;101268.78;5094680;28;20008;-54
2023/08/08 00:19:51;;;;;;;;;;;;;;;23.92;100.00;101276.44;5096852;28;19916;-56
2023/08/08 00:22:16;;;;;;;;;;;;;;;23.52;100.00;101275.38;5098469;28;19962;-56
2023/08/08 00:24:42;;;;;;;;;;;;;;;23.41;100.00;101271.00;5102304;28;19917;-56
2023/08/08 00:27:07;;;;;;;;;;;;;;;23.45;100.00;101270.22;5098308;28;19916;-55
2023/08/08 00:29:33;;;;;;;;;;;;;;;23.30;100.00;101262.00;5098465;28;19916;-54
2023/08/08 00:31:58;;;;;;;;;;;;;;;23.29;100.00;101258.44;5081167;28;19958;-56
2023/08/08 00:34:24;;;;;;;;;;;;;;;23.19;100.00;101255.69;5071659;28;19916;-52
2023/08/08 00:36:49;;;;;;;;;;;;;;;23.08;100.00;101262.22;5098680;28;19916;-57
2023/08/08 00:39:16;;;;;;;;;;;;;;;23.20;100.00;101251.84;5098563;28;19916;-54
2023/08/08 00:41:43;;;;;;;;;;;;;;;23.32;100.00;101251.63;5098384;28;20067;-55
2023/08/08 00:44:08;;;;;;;;;;;;;;;23.14;100.00;101250.22;5118137;28;19916;-54
2023/08/08 00:46:34;;;;;;;;;;;;;;;23.08;100.00;101243.94;5083690;28;19916;-57
2023/08/08 00:48:59;;;;;;;;;;;;;;;23.09;100.00;101240.13;5118672;28;19928;-57
2023/08/08 00:51:25;;;;;;;;;;;;;;;23.05;100.00;101231.66;5098274;28;19928;-58
2023/08/08 00:53:50;;;;;;;;;;;;;;;23.23;100.00;101239.59;5081252;28;19979;-54
2023/08/08 00:56:17;;;;;;;;;;;;;;;22.70;100.00;101219.59;5083550;28;19916;-56
2023/08/08 00:58:45;;;;;;;;;;;;;;;22.80;100.00;101245.22;5115252;28;19938;-56
2023/08/08 01:01:11;;;;;;;;;;;;;;;22.85;100.00;101243.34;5114124;28;19916;-56
2023/08/08 01:03:37;;;;;;;;;;;;;;;22.75;100.00;101238.69;5098382;28;19920;-58
2023/08/08 01:06:11;;;;;;;;;;;;;;;22.69;100.00;101239.75;5097882;28;19923;-56
2023/08/08 01:08:42;;;;;;;;;;;;;;;22.45;100.00;101245.63;5124317;28;19916;-56
2023/08/08 01:11:08;;;;;;;;;;;;;;;22.66;100.00;101234.84;5098488;28;19917;-58
2023/08/08 01:13:35;;;;;;;;;;;;;;;22.27;100.00;101229.75;5080542;28;19954;-55
2023/08/08 01:16:03;;;;;;;;;;;;;;;22.57;100.00;101231.81;5104199;28;19923;-53
2023/08/08 01:18:29;;;;;;;;;;;;;;;22.90;100.00;101232.44;5097947;28;19938;-57
2023/08/08 01:20:56;;;;;;;;;;;;;;;22.75;100.00;101235.94;5097761;28;19921;-57
2023/08/08 01:23:32;;;;;;;;;;;;;;;22.12;100.00;101244.91;5097771;28;19927;-57
2023/08/08 01:25:59;;;;;;;;;;;;;;;22.54;100.00;101245.13;5101617;28;19916;-57
2023/08/08 01:28:25;;;;;;;;;;;;;;;22.90;100.00;101234.38;5097578;28;19935;-56
2023/08/08 01:30:51;;;;;;;;;;;;;;;22.58;100.00;101246.25;5080019;28;19920;-58
2023/08/08 01:33:17;;;;;;;;;;;;;;;22.73;100.00;101246.31;5113682;28;19916;-57
2023/08/08 01:35:44;;;;;;;;;;;;;;;23.02;100.00;101251.28;5117642;28;19923;-56
2023/08/08 01:38:23;;;;;;;;;;;;;;;23.26;100.00;101244.53;5112047;28;19916;-55
2023/08/08 01:40:49;;;;;;;;;;;;;;;22.81;100.00;101236.78;5080016;28;19979;-57
2023/08/08 01:43:16;;;;;;;;;;;;;;;22.95;100.00;101237.09;5097205;28;19932;-58
2023/08/08 01:45:42;;;;;;;;;;;;;;;23.17;100.00;101236.84;5097560;28;19920;-51
2023/08/08 01:48:08;;;;;;;;;;;;;;;23.02;100.00;101225.94;5115716;28;19916;-56
2023/08/08 01:50:33;;;;;;;;;;;;;;;22.84;100.00;101233.53;5108355;28;19978;-57
2023/08/08 01:52:59;;;;;;;;;;;;;;;22.93;100.00;101228.38;5113272;28;20082;-58
2023/08/08 01:55:26;;;;;;;;;;;;;;;23.30;100.00;101224.63;5083605;28;19959;-57
2023/08/08 01:57:52;;;;;;;;;;;;;;;22.81;100.00;101225.06;5096952;28;19917;-57
2023/08/08 02:00:17;;;;;;;;;;;;;;;23.19;100.00;101221.06;5113177;28;19973;-56
2023/08/08 02:02:43;;;;;;;;;;;;;;;23.14;100.00;101229.19;5095244;28;19920;-57
2023/08/08 02:05:08;;;;;;;;;;;;;;;23.77;100.00;101219.16;5116928;28;19916;-57
2023/08/08 02:07:33;;;;;;;;;;;;;;;23.37;100.00;101229.00;5079389;28;19916;-55
2023/08/08 02:09:59;;;;;;;;;;;;;;;23.26;100.00;101220.78;5096989;28;19971;-53
2023/08/08 02:12:25;;;;;;;;;;;;;;;22.92;100.00;101224.00;5096905;28;19917;-58
2023/08/08 02:14:50;;;;;;;;;;;;;;;23.36;100.00;101227.34;5079316;28;19952;-53
2023/08/08 02:17:16;;;;;;;;;;;;;;;22.64;100.00;101220.66;5098890;28;19920;-57
2023/08/08 02:19:41;;;;;;;;;;;;;;;22.90;100.00;101207.09;5116307;28;19916;-52
2023/08/08 02:22:07;;;;;;;;;;;;;;;23.37;100.00;101209.88;5096606;28;19920;-54
2023/08/08 02:24:32;;;;;;;;;;;;;;;22.69;100.00;101212.50;5096807;28;19916;-56
2023/08/08 02:26:58;;;;;;;;;;;;;;;22.44;100.00;101205.84;5090728;28;19916;-57
2023/08/08 02:29:23;;;;;;;;;;;;;;;22.32;100.00;101205.25;5096507;28;19923;-52
2023/08/08 02:31:49;;;;;;;;;;;;;;;23.04;100.00;101213.63;5078945;28;19924;-52
2023/08/08 02:34:14;;;;;;;;;;;;;;;22.59;100.00;101205.09;5078930;28;19925;-55
2023/08/08 02:36:40;;;;;;;;;;;;;;;22.87;100.00;101210.38;5099840;28;19943;-54
2023/08/08 02:39:06;;;;;;;;;;;;;;;22.36;100.00;101203.63;5096261;28;19920;-53
2023/08/08 02:41:31;;;;;;;;;;;;;;;21.49;100.00;101212.91;5095613;28;19924;-56
2023/08/08 02:43:56;;;;;;;;;;;;;;;22.03;100.00;101211.94;5095934;28;19959;-52
2023/08/08 02:46:22;;;;;;;;;;;;;;;22.33;100.00;101204.97;5099715;28;19923;-57
2023/08/08 02:48:48;;;;;;;;;;;;;;;22.00;100.00;101196.09;5078791;28;19916;-51
2023/08/08 02:51:15;;;;;;;;;;;;;;;21.89;100.00;101206.09;5112168;28;19923;-57
2023/08/08 02:53:40;;;;;;;;;;;;;;;22.01;100.00;101203.19;5112270;28;19916;-54
2023/08/08 02:56:06;;;;;;;;;;;;;;;22.13;100.00;101205.69;5113921;28;19938;-58
2023/08/08 02:58:36;;;;;;;;;;;;;;;21.85;100.00;101198.75;5078671;28;19924;-55
2023/08/08 03:01:02;;;;;;;;;;;;;;;22.29;100.00;101189.44;5081760;28;19925;-55
2023/08/08 03:03:28;;;;;;;;;;;;;;;21.88;100.00;101185.41;5078112;28;19925;-55
2023/08/08 03:05:55;;;;;;;;;;;;;;;21.99;100.00;101182.75;5098710;28;20022;-55
2023/08/08 03:08:21;;;;;;;;;;;;;;;21.74;100.00;101195.94;5095541;28;19917;-57
2023/08/08 03:10:46;;;;;;;;;;;;;;;22.10;100.00;101184.44;5081756;28;19924;-55
2023/08/08 03:13:12;;;;;;;;;;;;;;;21.75;100.00;101178.53;5111620;28;19975;-56
2023/08/08 03:15:38;;;;;;;;;;;;;;;21.88;100.00;101182.69;5078424;28;20611;-52
2023/08/08 03:18:06;;;;;;;;;;;;;;;21.95;100.00;101176.22;5087809;28;19925;-56
2023/08/08 03:20:31;;;;;;;;;;;;;;;22.00;100.00;101182.47;5089117;28;19924;-56
2023/08/08 03:22:57;;;;;;;;;;;;;;;21.96;100.00;101175.13;5095383;28;19928;-53
2023/08/08 03:25:23;;;;;;;;;;;;;;;22.11;100.00;101183.34;5087507;28;19938;-57
2023/08/08 03:27:49;;;;;;;;;;;;;;;21.91;100.00;101176.75;5115378;28;19924;-55
2023/08/08 03:30:15;;;;;;;;;;;;;;;22.68;100.00;101180.88;5119691;28;19916;-53
2023/08/08 03:32:43;;;;;;;;;;;;;;;22.35;100.00;101182.91;5111640;28;19948;-56
2023/08/08 03:35:09;;;;;;;;;;;;;;;22.18;100.00;101181.22;5095365;28;19928;-56
2023/08/08 03:37:36;;;;;;;;;;;;;;;21.61;100.00;101177.34;5111445;28;19916;-58
2023/08/08 03:40:03;;;;;;;;;;;;;;;22.09;100.00;101184.72;5110707;28;19928;-56
2023/08/08 03:42:28;;;;;;;;;;;;;;;21.70;100.00;101183.94;5095303;28;19983;-55
2023/08/08 03:44:54;;;;;;;;;;;;;;;22.28;100.00;101190.50;5077612;28;19917;-54
2023/08/08 03:47:22;;;;;;;;;;;;;;;22.03;100.00;101176.53;5077537;28;19943;-56
2023/08/08 03:49:47;;;;;;;;;;;;;;;21.98;100.00;101173.75;5095162;28;19924;-55
2023/08/08 03:52:13;;;;;;;;;;;;;;;21.78;100.00;101171.75;5111171;28;19917;-56
2023/08/08 03:54:38;;;;;;;;;;;;;;;21.68;100.00;101177.94;5077523;28;19991;-56
2023/08/08 03:57:04;;;;;;;;;;;;;;;21.51;100.00;101166.38;5102409;28;19916;-58
2023/08/08 03:59:30;;;;;;;;;;;;;;;21.99;100.00;101172.69;5115683;28;19983;-53
2023/08/08 04:01:56;;;;;;;;;;;;;;;21.66;100.00;101174.69;5104387;28;19927;-56
2023/08/08 04:04:21;;;;;;;;;;;;;;;21.30;100.00;101168.94;5095076;28;19926;-53
2023/08/08 04:06:48;;;;;;;;;;;;;;;22.15;100.00;101175.47;5081655;28;19916;-53
2023/08/08 04:09:14;;;;;;;;;;;;;;;21.47;100.00;101166.09;5079831;28;19923;-54
2023/08/08 04:11:39;;;;;;;;;;;;;;;21.76;100.00;101169.28;5110923;28;19916;-53
2023/08/08 04:14:05;;;;;;;;;;;;;;;22.17;100.00;101163.25;5094980;28;19976;-56
2023/08/08 04:16:30;;;;;;;;;;;;;;;22.23;100.00;101161.34;5064525;28;19920;-55
2023/08/08 04:18:55;;;;;;;;;;;;;;;22.19;100.00;101161.06;5094513;28;19947;-53
2023/08/08 04:21:21;;;;;;;;;;;;;;;22.24;100.00;101167.63;5100712;28;20292;-55
2023/08/08 04:23:47;;;;;;;;;;;;;;;21.90;100.00;101164.19;5094680;28;19932;-53
2023/08/08 04:26:12;;;;;;;;;;;;;;;21.49;100.00;101153.03;5076925;28;19923;-52
2023/08/08 04:28:38;;;;;;;;;;;;;;;22.12;100.00;101165.13;5096365;28;19935;-53
2023/08/08 04:31:03;;;;;;;;;;;;;;;21.74;100.00;101159.75;5094660;28;19917;-55
2023/08/08 04:33:29;;;;;;;;;;;;;;;21.81;100.00;101165.78;5094646;28;19960;-57
2023/08/08 04:35:54;;;;;;;;;;;;;;;21.67;100.00;101159.16;5094603;28;19948;-57
2023/08/08 04:38:19;;;;;;;;;;;;;;;21.95;100.00;101166.13;5105912;28;19946;-53
2023/08/08 04:40:45;;;;;;;;;;;;;;;22.01;100.00;101161.53;5103540;28;19920;-56
2023/08/08 04:43:11;;;;;;;;;;;;;;;21.68;100.00;101155.34;5080887;28;19920;-56
2023/08/08 04:45:37;;;;;;;;;;;;;;;22.39;100.00;101164.97;5095436;28;19916;-56
2023/08/08 04:48:02;;;;;;;;;;;;;;;22.14;100.00;101162.94;5102654;28;19923;-55
2023/08/08 04:50:28;;;;;;;;;;;;;;;21.99;100.00;101150.09;5095490;28;19917;-56
2023/08/08 04:52:53;;;;;;;;;;;;;;;22.25;100.00;101153.72;5094600;28;19916;-57
2023/08/08 04:55:19;;;;;;;;;;;;;;;22.16;100.00;101161.63;5090763;28;19917;-57
2023/08/08 04:57:44;;;;;;;;;;;;;;;22.41;100.00;101161.97;5098433;28;20002;-56
2023/08/08 05:00:10;;;;;;;;;;;;;;;22.49;100.00;101154.13;5094102;28;19916;-58
2023/08/08 05:02:38;;;;;;;;;;;;;;;22.12;100.00;101155.03;5094080;28;19923;-56
2023/08/08 05:05:04;;;;;;;;;;;;;;;21.70;100.00;101154.00;5094686;28;19916;-58
2023/08/08 05:07:30;;;;;;;;;;;;;;;21.35;100.00;101161.63;5095824;28;19975;-54
2023/08/08 05:09:56;;;;;;;;;;;;;;;21.54;100.00;101144.91;5097841;28;19928;-55
2023/08/08 05:12:21;;;;;;;;;;;;;;;21.83;100.00;101150.00;5084267;28;19921;-56
2023/08/08 05:14:47;;;;;;;;;;;;;;;22.06;100.00;101150.66;5097653;28;19917;-57
2023/08/08 05:17:12;;;;;;;;;;;;;;;21.29;100.00;101148.25;5098869;28;19923;-56
2023/08/08 05:19:38;;;;;;;;;;;;;;;22.33;100.00;101150.50;5091701;28;19927;-57
2023/08/08 05:22:03;;;;;;;;;;;;;;;22.01;100.00;101156.09;5097399;28;19921;-55
2023/08/08 05:24:29;;;;;;;;;;;;;;;22.18;100.00;101153.16;5097576;28;19920;-54
2023/08/08 05:26:54;;;;;;;;;;;;;;;22.28;100.00;101157.81;5098071;28;19931;-55
2023/08/08 05:29:20;;;;;;;;;;;;;;;22.48;100.00;101162.53;5107013;28;19924;-56
2023/08/08 05:31:46;;;;;;;;;;;;;;;22.47;100.00;101166.34;5108393;28;19926;-57
2023/08/08 05:34:11;;;;;;;;;;;;;;;22.64;100.00;101160.69;5094720;28;19923;-55
2023/08/08 05:36:37;;;;;;;;;;;;;;;22.65;100.00;101159.63;5097508;28;19916;-56
2023/08/08 05:39:02;;;;;;;;;;;;;;;22.36;100.00;101162.75;5106476;28;19917;-57
2023/08/08 05:41:27;;;;;;;;;;;;;;;22.34;100.00;101157.59;5096572;28;19976;-56
2023/08/08 05:43:53;;;;;;;;;;;;;;;23.00;100.00;101163.47;5097216;28;19921;-56
2023/08/08 05:46:18;;;;;;;;;;;;;;;23.39;100.00;101164.03;5083765;28;19939;-57
2023/08/08 05:48:44;;;;;;;;;;;;;;;23.25;100.00;101161.84;5107965;28;19923;-56
2023/08/08 05:51:09;;;;;;;;;;;;;;;22.96;100.00;101162.38;5097912;28;19923;-56
2023/08/08 05:53:35;;;;;;;;;;;;;;;22.94;100.00;101170.00;5097089;28;19917;-54
2023/08/08 05:56:00;;;;;;;;;;;;;;;23.81;100.00;101165.63;5097092;28;19938;-56
2023/08/08 05:58:26;;;;;;;;;;;;;;;24.40;100.00;101168.69;5100537;28;19920;-55
2023/08/08 06:00:52;;;;;;;;;;;;;;;23.31;100.00;101162.69;5097589;28;20287;-54
2023/08/08 06:03:18;;;;;;;;;;;;;;;23.24;100.00;101173.84;5096381;28;19920;-57
2023/08/08 06:05:43;;;;;;;;;;;;;;;23.64;100.00;101171.38;5096884;28;19916;-54
2023/08/08 06:08:11;;;;;;;;;;;;;;;24.51;100.00;101182.31;5100709;28;19916;-56
2023/08/08 06:10:37;;;;;;;;;;;;;;;23.79;100.00;101181.47;5096362;28;19972;-57
2023/08/08 06:13:02;;;;;;;;;;;;;;;23.80;100.00;101185.81;5108920;28;19916;-55
2023/08/08 06:15:27;;;;;;;;;;;;;;;23.73;100.00;101191.56;5096423;28;19917;-50
2023/08/08 06:17:53;;;;;;;;;;;;;;;23.74;100.00;101189.63;5099210;28;19939;-53
2023/08/08 06:20:18;;;;;;;;;;;;;;;23.65;100.00;101192.13;5096420;28;19924;-56
2023/08/08 06:22:44;;;;;;;;;;;;;;;23.67;100.00;101189.13;5096533;28;19925;-57
2023/08/08 06:25:10;;;;;;;;;;;;;;;24.05;100.00;101186.88;5096478;28;19917;-57
2023/08/08 06:27:36;;;;;;;;;;;;;;;23.36;100.00;101195.41;5098005;28;19916;-53
2023/08/08 06:30:02;;;;;;;;;;;;;;;23.92;100.00;101199.19;5098837;28;19920;-55
2023/08/08 06:32:28;;;;;;;;;;;;;;;24.93;100.00;101200.13;5095982;28;19916;-56
2023/08/08 06:34:55;;;;;;;;;;;;;;;24.20;100.00;101200.47;5095563;28;19917;-56
2023/08/08 06:37:20;;;;;;;;;;;;;;;24.42;100.00;101212.94;5095702;28;19913;-57
2023/08/08 06:39:45;;;;;;;;;;;;;;;24.28;100.00;101206.47;5095400;28;19927;-57
2023/08/08 06:42:11;;;;;;;;;;;;;;;23.90;100.00;101209.56;5095552;28;19942;-52
2023/08/08 06:44:49;;;;;;;;;;;;;;;23.89;100.00;101206.00;5111589;28;19916;-54
2023/08/08 06:47:15;;;;;;;;;;;;;;;23.42;100.00;101202.53;5095603;28;19981;-57
2023/08/08 06:49:40;;;;;;;;;;;;;;;22.95;100.00;101207.09;5096281;28;19944;-55
2023/08/08 06:52:06;;;;;;;;;;;;;;;23.90;100.00;101207.63;5096169;28;19921;-53
2023/08/08 06:54:32;;;;;;;;;;;;;;;23.83;100.00;101204.38;5095912;28;19920;-56
2023/08/08 06:56:57;;;;;;;;;;;;;;;23.11;100.00;101204.41;5096014;28;19923;-57
2023/08/08 06:59:23;;;;;;;;;;;;;;;23.41;100.00;101208.25;5084515;28;19924;-58
2023/08/08 07:01:49;;;;;;;;;;;;;;;23.07;100.00;101209.56;5095705;28;19943;-57
2023/08/08 07:04:14;;;;;;;;;;;;;;;23.75;100.00;101207.66;5095615;28;19916;-56
2023/08/08 07:06:40;;;;;;;;;;;;;;;24.02;100.00;101215.56;5095642;28;19984;-57
2023/08/08 07:09:10;;;;;;;;;;;;;;;23.79;100.00;101211.50;5099178;28;19927;-55
2023/08/08 07:11:36;;;;;;;;;;;;;;;23.29;100.00;101212.06;5095725;28;19946;-55
2023/08/08 07:14:02;;;;;;;;;;;;;;;23.38;100.00;101222.44;5095211;28;19923;-58
2023/08/08 07:16:27;;;;;;;;;;;;;;;23.25;100.00;101218.31;5095460;28;19952;-54
2023/08/08 07:18:53;;;;;;;;;;;;;;;23.44;100.00;101214.00;5096244;28;19923;-56
2023/08/08 07:21:18;;;;;;;;;;;;;;;23.76;100.00;101204.66;5095203;28;19920;-56
2023/08/08 07:23:44;;;;;;;;;;;;;;;23.68;100.00;101207.13;5097814;28;19920;-53
2023/08/08 07:26:10;;;;;;;;;;;;;;;23.53;100.00;101206.06;5095235;28;19917;-54
2023/08/08 07:28:36;;;;;;;;;;;;;;;23.58;100.00;101213.41;5095683;28;19916;-53
2023/08/08 07:31:01;;;;;;;;;;;;;;;24.70;95.84;101205.16;5100163;28;19916;-58
2023/08/08 07:33:27;;;;;;;;;;;;;;;24.16;93.22;101204.84;5095057;28;19948;-55
2023/08/08 07:35:52;;;;;;;;;;;;;;;24.48;93.05;101203.63;5095244;28;19917;-51
2023/08/08 07:38:18;;;;;;;;;;;;;;;24.94;89.52;101198.19;5095681;28;19976;-55
2023/08/08 07:40:43;;;;;;;;;;;;;;;24.88;89.48;101191.94;5097661;28;19916;-54
2023/08/08 07:43:09;;;;;;;;;;;;;;;24.13;88.63;101193.69;5094608;28;19920;-55
2023/08/08 07:45:34;;;;;;;;;;;;;;;24.35;89.88;101193.31;5094682;28;19943;-56
2023/08/08 07:48:00;;;;;;;;;;;;;;;23.94;89.00;101194.25;5094466;28;19921;-54
2023/08/08 07:50:25;;;;;;;;;;;;;;;24.73;83.56;101190.91;5100262;28;19987;-56
2023/08/08 07:52:51;;;;;;;;;;;;;;;24.45;81.66;101189.72;5101678;28;19919;-52
2023/08/08 07:55:16;;;;;;;;;;;;;;;24.53;82.04;101191.03;5094363;28;19916;-59
2023/08/08 07:57:42;;;;;;;;;;;;;;;25.08;82.10;101195.63;5094652;28;19916;-57
2023/08/08 08:00:13;;;;;;;;;;;;;;;25.92;76.89;101183.63;5097258;28;19938;-57
2023/08/08 08:02:42;;;;;;;;;;;;;;;25.04;78.67;101179.78;5094767;28;19920;-57
2023/08/08 08:05:08;;;;;;;;;;;;;;;25.41;77.87;101193.19;5094903;28;19931;-53
2023/08/08 08:07:34;;;;;;;;;;;;;;;25.03;83.38;101188.28;5094546;28;19976;-56
2023/08/08 08:10:01;;;;;;;;;;;;;;;26.08;74.32;101206.22;5106853;28;19926;-56
2023/08/08 08:12:27;;;;;;;;;;;;;;;25.05;74.81;101197.84;5098898;28;19916;-55
2023/08/08 08:14:53;;;;;;;;;;;;;;;25.02;77.49;101190.19;5077507;28;19935;-56
2023/08/08 08:17:18;;;;;;;;;;;;;;;25.02;78.14;101181.16;5094729;28;19936;-56
2023/08/08 08:19:44;;;;;;;;;;;;;;;24.64;82.15;101187.13;5103669;28;19938;-57
2023/08/08 08:22:09;;;;;;;;;;;;;;;25.14;78.65;101189.00;5097991;28;20005;-56
2023/08/08 08:24:35;;;;;;;;;;;;;;;24.95;79.19;101195.19;5094925;28;19916;-58
2023/08/08 08:27:00;;;;;;;;;;;;;;;24.89;77.34;101188.09;5094613;28;19924;-58
2023/08/08 08:29:26;;;;;;;;;;;;;;;24.92;79.66;101188.34;5100639;28;19920;-55
2023/08/08 08:31:51;;;;;;;;;;;;;;;24.73;80.44;101185.47;5098869;28;19924;-56
2023/08/08 08:34:17;;;;;;;;;;;;;;;24.58;81.00;101194.56;5102131;28;19966;-53
2023/08/08 08:36:42;;;;;;;;;;;;;;;25.04;79.28;101196.19;5094557;28;19917;-56
2023/08/08 08:39:08;;;;;;;;;;;;;;;24.63;80.05;101199.16;5093970;28;19942;-51
2023/08/08 08:41:35;;;;;;;;;;;;;;;25.26;76.72;101199.59;5100370;28;19916;-55
2023/08/08 08:44:01;;;;;;;;;;;;;;;25.47;73.42;101197.53;5098278;28;19908;-58
2023/08/08 08:46:27;;;;;;;;;;;;;;;25.66;73.32;101199.56;5080608;28;19920;-56
2023/08/08 08:48:54;;;;;;;;;;;;;;;25.73;70.52;101191.81;5098394;28;19939;-56
2023/08/08 08:51:20;;;;;;;;;;;;;;;25.56;71.76;101195.00;5101739;28;19984;-59
2023/08/08 08:53:46;;;;;;;;;;;;;;;26.76;66.79;101203.44;5098222;28;19920;-57
2023/08/08 08:56:13;;;;;;;;;;;;;;;26.05;67.64;101207.63;5097780;28;19939;-55
2023/08/08 08:58:39;;;;;;;;;;;;;;;25.47;68.00;101198.34;5098282;28;19912;-56
2023/08/08 09:01:05;;;;;;;;;;;;;;;25.72;68.37;101199.22;5109478;28;19920;-56
2023/08/08 09:03:30;;;;;;;;;;;;;;;25.45;67.02;101199.72;5088447;28;20078;-57
2023/08/08 09:05:57;;;;;;;;;;;;;;;25.17;68.14;101197.47;5102065;28;19959;-54
2023/08/08 09:08:23;;;;;;;;;;;;;;;26.06;66.69;101205.66;5097896;28;19906;-57
2023/08/08 09:10:48;;;;;;;;;;;;;;;26.12;66.50;101200.94;5106293;28;19916;-55
2023/08/08 09:13:14;;;;;;;;;;;;;;;25.84;65.18;101212.50;5102517;28;19923;-53
2023/08/08 09:15:40;;;;;;;;;;;;;;;26.12;65.32;101204.53;5102688;28;19963;-53
2023/08/08 09:18:06;;;;;;;;;;;;;;;26.26;65.29;101201.09;5097804;28;19980;-53
2023/08/08 09:20:32;;;;;;;;;;;;;;;26.27;64.33;101191.75;5101726;28;19924;-56
2023/08/08 09:22:58;;;;;;;;;;;;;;;26.01;64.53;101205.75;5099238;28;19939;-53
2023/08/08 09:25:24;;;;;;;;;;;;;;;25.92;62.99;101211.88;5101011;28;19932;-56
2023/08/08 09:27:56;;;;;;;;;;;;;;;26.54;62.38;101201.28;5097616;28;19922;-54
2023/08/08 09:30:22;;;;;;;;;;;;;;;26.29;61.22;101197.75;5097856;28;19911;-56
2023/08/08 09:32:48;;;;;;;;;;;;;;;27.31;58.61;101202.88;5097517;28;19916;-55
2023/08/08 09:35:15;;;;;;;;;;;;;;;27.61;56.15;101208.97;5097381;28;19917;-54
2023/08/08 09:37:41;;;;;;;;;;;;;;;27.31;55.51;101207.53;5097625;28;19924;-55
2023/08/08 09:40:07;;;;;;;;;;;;;;;27.26;54.96;101205.72;5100019;28;19916;-55
2023/08/08 09:42:33;;;;;;;;;;;;;;;27.41;54.33;101214.78;5104389;28;19995;-53
2023/08/08 09:44:59;;;;;;;;;;;;;;;27.90;54.28;101223.56;5096981;28;19938;-55
2023/08/08 09:47:31;;;;;;;;;;;;;;;26.84;56.20;101205.50;5097340;28;19916;-55
2023/08/08 09:49:59;;;;;;;;;;;;;;;28.47;53.11;101217.75;5097192;28;19920;-57
2023/08/08 09:52:25;;;;;;;;;;;;;;;26.77;55.41;101194.09;5105704;28;19920;-56
2023/08/08 09:54:50;;;;;;;;;;;;;;;28.28;53.31;101201.41;5107296;28;19911;-56
2023/08/08 09:57:16;;;;;;;;;;;;;;;30.12;48.54;101203.78;5097065;28;19920;-56
2023/08/08 09:59:42;;;;;;;;;;;;;;;28.94;49.12;101210.41;5097018;28;19991;-56
2023/08/08 10:02:13;;;;;;;;;;;;;;;28.71;48.10;101197.41;5102473;28;19921;-57
2023/08/08 10:04:38;;;;;;;;;;;;;;;27.60;51.23;101237.56;5097090;28;19948;-54
2023/08/08 10:07:04;;;;;;;;;;;;;;;28.47;50.36;101204.00;5096771;28;19917;-57
2023/08/08 10:09:30;;;;;;;;;;;;;;;29.60;48.12;101216.22;5095095;28;19955;-54
2023/08/08 10:11:55;;;;;;;;;;;;;;;28.51;49.02;101212.47;5098829;28;19920;-55
2023/08/08 10:14:28;;;;;;;;;;;;;;;27.69;50.48;101223.16;5100040;28;19996;-56
2023/08/08 10:16:55;;;;;;;;;;;;;;;27.77;50.44;101223.22;5096646;28;19980;-54
2023/08/08 10:19:21;;;;;;;;;;;;;;;28.21;50.18;101222.16;5096421;28;19917;-54
2023/08/08 10:21:47;;;;;;;;;;;;;;;28.25;51.01;101217.69;5096065;28;19931;-53
2023/08/08 10:24:13;;;;;;;;;;;;;;;28.93;50.89;101215.09;5096057;28;19916;-56
2023/08/08 10:26:57;;;;;;;;;;;;;;;29.07;50.07;101226.06;5096537;28;19948;-56
2023/08/08 10:29:24;;;;;;;;;;;;;;;30.34;46.39;101221.34;5084971;28;19927;-55
2023/08/08 10:31:51;;;;;;;;;;;;;;;29.20;48.76;101224.38;5105306;28;19937;-56
2023/08/08 10:34:20;;;;;;;;;;;;;;;31.27;44.44;101223.22;5096246;28;19927;-57
2023/08/08 10:36:50;;;;;;;;;;;;;;;31.27;42.77;101232.31;5078700;28;19931;-55
2023/08/08 10:39:17;;;;;;;;;;;;;;;31.19;41.29;101233.94;5096097;28;19920;-56
2023/08/08 10:41:44;;;;;;;;;;;;;;;30.30;43.38;101236.94;5104599;28;19916;-55
2023/08/08 10:44:10;;;;;;;;;;;;;;;29.86;43.80;101218.28;5100653;28;19920;-57
2023/08/08 10:46:40;;;;;;;;;;;;;;;29.42;41.75;101228.25;5099686;28;19988;-54
2023/08/08 10:49:05;;;;;;;;;;;;;;;28.88;44.32;101227.03;5096173;28;19917;-58
2023/08/08 10:51:37;;;;;;;;;;;;;;;28.86;43.97;101231.25;5103194;28;19939;-55
2023/08/08 10:54:04;;;;;;;;;;;;;;;29.29;43.70;101224.44;5098584;28;19987;-57
2023/08/08 10:56:31;;;;;;;;;;;;;;;30.85;42.68;101226.47;5080354;28;19921;-56
2023/08/08 10:58:57;;;;;;;;;;;;;;;29.93;43.13;101219.75;5095797;28;19920;-56
2023/08/08 11:01:26;;;;;;;;;;;;;;;28.98;46.45;101219.69;5099277;28;19917;-57
2023/08/08 11:03:52;;;;;;;;;;;;;;;29.55;44.73;101223.81;5095034;28;19927;-57
2023/08/08 11:06:18;;;;;;;;;;;;;;;29.81;43.51;101223.09;5095423;28;19916;-58
2023/08/08 11:08:44;;;;;;;;;;;;;;;30.40;42.25;101231.09;5095641;28;19916;-58
2023/08/08 11:11:09;;;;;;;;;;;;;;;30.79;42.11;101213.97;5078784;28;19916;-55
2023/08/08 11:13:35;;;;;;;;;;;;;;;31.39;40.56;101215.06;5095526;28;19921;-58
2023/08/08 11:16:03;;;;;;;;;;;;;;;32.32;39.75;101228.34;5095407;28;19916;-55
2023/08/08 11:18:29;;;;;;;;;;;;;;;32.88;39.20;101220.97;5095418;28;19917;-57
2023/08/08 11:20:55;;;;;;;;;;;;;;;32.02;40.27;101217.28;5095149;28;19943;-55
2023/08/08 11:23:20;;;;;;;;;;;;;;;30.82;41.20;101229.88;5102365;28;19943;-56
2023/08/08 11:25:46;;;;;;;;;;;;;;;30.88;40.49;101223.06;5095125;28;19921;-56
2023/08/08 11:28:12;;;;;;;;;;;;;;;31.51;39.67;101221.84;5095230;28;19948;-57
2023/08/08 11:30:39;;;;;;;;;;;;;;;31.92;38.58;101231.47;5095309;28;19916;-56
2023/08/08 11:33:04;;;;;;;;;;;;;;;31.26;38.34;101230.69;5098918;28;19916;-58
2023/08/08 11:35:30;;;;;;;;;;;;;;;31.74;39.86;101223.25;5094985;28;20005;-58
2023/08/08 11:37:57;;;;;;;;;;;;;;;32.12;38.89;101224.38;5095114;28;19920;-58
2023/08/08 11:40:25;;;;;;;;;;;;;;;33.18;37.42;101213.34;5094787;28;19927;-56
2023/08/08 11:42:51;;;;;;;;;;;;;;;33.14;37.31;101214.38;5099025;28;19970;-58
2023/08/08 11:45:18;;;;;;;;;;;;;;;31.82;38.95;101224.34;5085402;28;19925;-54
2023/08/08 11:47:43;;;;;;;;;;;;;;;30.87;40.72;101226.94;5095042;28;19916;-55
2023/08/08 11:50:10;;;;;;;;;;;;;;;32.03;40.35;101226.38;5094996;28;19927;-55
2023/08/08 11:52:45;;;;;;;;;;;;;;;31.87;39.84;101217.84;5105307;28;20112;-58
2023/08/08 11:55:11;;;;;;;;;;;;;;;31.90;37.23;101215.22;5101795;28;20005;-58
2023/08/08 11:57:37;;;;;;;;;;;;;;;32.49;37.45;101220.25;5099844;28;19924;-58
2023/08/08 12:00:07;;;;;;;;;;;;;;;31.74;38.25;101212.19;5094885;28;19988;-58
2023/08/08 12:02:38;;;;;;;;;;;;;;;32.51;38.74;101218.78;5098572;28;19943;-57
2023/08/08 12:05:05;;;;;;;;;;;;;;;33.27;37.74;101215.19;5094859;28;19916;-56
2023/08/08 12:07:32;;;;;;;;;;;;;;;31.88;36.23;101216.69;5094916;28;19944;-56
2023/08/08 12:09:58;;;;;;;;;;;;;;;30.79;39.29;101225.81;5094976;28;19916;-57
2023/08/08 12:12:25;;;;;;;;;;;;;;;30.28;39.10;101217.13;5094603;28;19927;-57
2023/08/08 12:14:54;;;;;;;;;;;;;;;30.15;38.75;101216.13;5095138;28;20008;-56
2023/08/08 12:17:23;;;;;;;;;;;;;;;30.19;38.36;101217.91;5095294;28;19916;-56
2023/08/08 12:19:49;;;;;;;;;;;;;;;30.53;39.15;101223.03;5098870;28;19923;-57
2023/08/08 12:22:15;;;;;;;;;;;;;;;31.00;39.93;101220.47;5100380;28;19921;-57
2023/08/08 12:24:40;;;;;;;;;;;;;;;30.27;39.42;101218.28;5098886;28;19916;-58